sensor_id;sensor_type;location;lat;lon;timestamp;temperature;humidity
19567;DHT22;9930;49.240;8.548;2023-04-07T00:01:12;11.60;63.10
19567;DHT22;9930;49.240;8.548;2023-04-07T00:03:38;11.60;63.30
19567;DHT22;9930;49.240;8.548;2023-04-07T00:06:05;11.60;63.50
19567;DHT22;9930;49.240;8.548;2023-04-07T00:08:38;11.60;63.50
19567;DHT22;9930;49.240;8.548;2023-04-07T00:11:06;11.60;63.30
19567;DHT22;9930;49.240;8.548;2023-04-07T00:13:34;11.60;63.30
19567;DHT22;9930;49.240;8.548;2023-04-07T00:16:04;11.60;63.30
19567;DHT22;9930;49.240;8.548;2023-04-07T00:18:30;11.60;63.50
19567;DHT22;9930;49.240;8.548;2023-04-07T00:20:56;11.60;63.50
19567;DHT22;9930;49.240;8.548;2023-04-07T00:23:21;11.60;63.80
19567;DHT22;9930;49.240;8.548;2023-04-07T00:25:49;11.60;63.80
19567;DHT22;9930;49.240;8.548;2023-04-07T00:28:15;11.60;64.00
19567;DHT22;9930;49.240;8.548;2023-04-07T00:30:43;11.60;64.00
19567;DHT22;9930;49.240;8.548;2023-04-07T00:33:12;11.60;63.90
19567;DHT22;9930;49.240;8.548;2023-04-07T00:35:48;11.60;64.00
19567;DHT22;9930;49.240;8.548;2023-04-07T00:38:13;11.60;64.70
19567;DHT22;9930;49.240;8.548;2023-04-07T00:40:39;11.60;64.20
19567;DHT22;9930;49.240;8.548;2023-04-07T00:43:08;11.60;64.20
19567;DHT22;9930;49.240;8.548;2023-04-07T00:45:39;11.60;64.30
19567;DHT22;9930;49.240;8.548;2023-04-07T00:48:12;11.60;64.20
19567;DHT22;9930;49.240;8.548;2023-04-07T00:50:39;11.60;65.00
19567;DHT22;9930;49.240;8.548;2023-04-07T00:53:11;11.60;64.60
19567;DHT22;9930;49.240;8.548;2023-04-07T00:55:41;11.50;64.60
19567;DHT22;9930;49.240;8.548;2023-04-07T00:58:10;11.50;64.70
19567;DHT22;9930;49.240;8.548;2023-04-07T01:01:07;11.50;64.70
19567;DHT22;9930;49.240;8.548;2023-04-07T01:04:06;11.50;65.70
19567;DHT22;9930;49.240;8.548;2023-04-07T01:06:40;11.50;65.60
19567;DHT22;9930;49.240;8.548;2023-04-07T01:09:17;11.50;64.80
19567;DHT22;9930;49.240;8.548;2023-04-07T01:12:14;11.50;65.10
19567;DHT22;9930;49.240;8.548;2023-04-07T01:14:53;11.50;65.80
19567;DHT22;9930;49.240;8.548;2023-04-07T01:17:24;11.50;65.10
19567;DHT22;9930;49.240;8.548;2023-04-07T01:20:02;11.50;65.10
19567;DHT22;9930;49.240;8.548;2023-04-07T01:31:54;11.40;65.90
19567;DHT22;9930;49.240;8.548;2023-04-07T01:34:25;11.40;65.00
19567;DHT22;9930;49.240;8.548;2023-04-07T01:36:54;11.40;65.30
19567;DHT22;9930;49.240;8.548;2023-04-07T01:39:22;11.50;65.60
19567;DHT22;9930;49.240;8.548;2023-04-07T01:41:49;11.40;65.50
19567;DHT22;9930;49.240;8.548;2023-04-07T01:44:18;11.40;65.60
19567;DHT22;9930;49.240;8.548;2023-04-07T01:46:49;11.50;65.70
19567;DHT22;9930;49.240;8.548;2023-04-07T01:49:18;11.50;65.80
19567;DHT22;9930;49.240;8.548;2023-04-07T01:51:51;11.40;66.60
19567;DHT22;9930;49.240;8.548;2023-04-07T01:54:22;11.40;65.90
19567;DHT22;9930;49.240;8.548;2023-04-07T01:56:48;11.40;65.90
19567;DHT22;9930;49.240;8.548;2023-04-07T01:59:16;11.40;65.80
19567;DHT22;9930;49.240;8.548;2023-04-07T02:01:42;11.50;65.90
19567;DHT22;9930;49.240;8.548;2023-04-07T02:04:24;11.50;65.90
19567;DHT22;9930;49.240;8.548;2023-04-07T02:07:07;11.50;66.20
19567;DHT22;9930;49.240;8.548;2023-04-07T02:09:38;11.50;66.30
19567;DHT22;9930;49.240;8.548;2023-04-07T02:12:08;11.40;66.10
19567;DHT22;9930;49.240;8.548;2023-04-07T02:14:42;11.50;66.20
19567;DHT22;9930;49.240;8.548;2023-04-07T02:17:14;11.40;66.30
19567;DHT22;9930;49.240;8.548;2023-04-07T02:19:41;11.40;66.10
19567;DHT22;9930;49.240;8.548;2023-04-07T02:22:12;11.40;66.10
19567;DHT22;9930;49.240;8.548;2023-04-07T02:24:43;11.40;66.20
19567;DHT22;9930;49.240;8.548;2023-04-07T02:27:09;11.40;66.50
19567;DHT22;9930;49.240;8.548;2023-04-07T02:29:38;11.40;66.50
19567;DHT22;9930;49.240;8.548;2023-04-07T02:32:05;11.50;66.60
19567;DHT22;9930;49.240;8.548;2023-04-07T02:34:33;11.40;66.60
19567;DHT22;9930;49.240;8.548;2023-04-07T02:36:59;11.40;66.70
19567;DHT22;9930;49.240;8.548;2023-04-07T02:39:25;11.40;66.80
19567;DHT22;9930;49.240;8.548;2023-04-07T02:41:50;11.40;66.80
19567;DHT22;9930;49.240;8.548;2023-04-07T02:44:17;11.40;66.80
19567;DHT22;9930;49.240;8.548;2023-04-07T02:46:45;11.40;67.00
19567;DHT22;9930;49.240;8.548;2023-04-07T02:49:13;11.40;66.80
19567;DHT22;9930;49.240;8.548;2023-04-07T02:51:40;11.40;67.00
19567;DHT22;9930;49.240;8.548;2023-04-07T02:54:08;11.40;67.10
19567;DHT22;9930;49.240;8.548;2023-04-07T02:56:34;11.30;67.30
19567;DHT22;9930;49.240;8.548;2023-04-07T02:59:00;11.30;67.30
19567;DHT22;9930;49.240;8.548;2023-04-07T03:01:25;11.30;67.40
19567;DHT22;9930;49.240;8.548;2023-04-07T03:03:52;11.40;67.00
19567;DHT22;9930;49.240;8.548;2023-04-07T03:06:20;11.30;67.20
19567;DHT22;9930;49.240;8.548;2023-04-07T03:08:45;11.30;67.30
19567;DHT22;9930;49.240;8.548;2023-04-07T03:11:11;11.30;67.30
19567;DHT22;9930;49.240;8.548;2023-04-07T03:13:37;11.40;67.50
19567;DHT22;9930;49.240;8.548;2023-04-07T03:16:05;11.30;67.50
19567;DHT22;9930;49.240;8.548;2023-04-07T03:18:31;11.30;67.60
19567;DHT22;9930;49.240;8.548;2023-04-07T03:20:57;11.40;67.70
19567;DHT22;9930;49.240;8.548;2023-04-07T03:23:23;11.40;67.80
19567;DHT22;9930;49.240;8.548;2023-04-07T03:25:53;11.40;67.80
19567;DHT22;9930;49.240;8.548;2023-04-07T03:28:21;11.30;67.80
19567;DHT22;9930;49.240;8.548;2023-04-07T03:30:47;11.30;67.90
19567;DHT22;9930;49.240;8.548;2023-04-07T03:33:15;11.30;68.00
19567;DHT22;9930;49.240;8.548;2023-04-07T03:35:41;11.30;68.00
19567;DHT22;9930;49.240;8.548;2023-04-07T03:38:15;11.30;68.10
19567;DHT22;9930;49.240;8.548;2023-04-07T03:40:42;11.30;68.10
19567;DHT22;9930;49.240;8.548;2023-04-07T03:43:13;11.30;68.00
19567;DHT22;9930;49.240;8.548;2023-04-07T03:45:43;11.30;68.00
19567;DHT22;9930;49.240;8.548;2023-04-07T03:48:10;11.30;68.20
19567;DHT22;9930;49.240;8.548;2023-04-07T03:50:41;11.30;68.30
19567;DHT22;9930;49.240;8.548;2023-04-07T03:53:08;11.30;68.30
19567;DHT22;9930;49.240;8.548;2023-04-07T03:55:38;11.40;68.30
19567;DHT22;9930;49.240;8.548;2023-04-07T03:58:07;11.30;68.30
19567;DHT22;9930;49.240;8.548;2023-04-07T04:00:33;11.30;68.40
19567;DHT22;9930;49.240;8.548;2023-04-07T04:03:00;11.30;68.30
19567;DHT22;9930;49.240;8.548;2023-04-07T04:05:26;11.30;68.40
19567;DHT22;9930;49.240;8.548;2023-04-07T04:07:57;11.30;68.50
19567;DHT22;9930;49.240;8.548;2023-04-07T04:10:23;11.30;68.50
19567;DHT22;9930;49.240;8.548;2023-04-07T04:12:51;11.30;68.50
19567;DHT22;9930;49.240;8.548;2023-04-07T04:15:17;11.30;68.60
19567;DHT22;9930;49.240;8.548;2023-04-07T04:17:45;11.20;68.50
19567;DHT22;9930;49.240;8.548;2023-04-07T04:20:12;11.20;68.60
19567;DHT22;9930;49.240;8.548;2023-04-07T04:22:37;11.20;68.50
19567;DHT22;9930;49.240;8.548;2023-04-07T04:25:04;11.20;68.70
19567;DHT22;9930;49.240;8.548;2023-04-07T04:27:29;11.20;68.80
19567;DHT22;9930;49.240;8.548;2023-04-07T04:29:57;11.20;68.80
19567;DHT22;9930;49.240;8.548;2023-04-07T04:32:25;11.20;68.90
19567;DHT22;9930;49.240;8.548;2023-04-07T04:34:53;11.20;69.00
19567;DHT22;9930;49.240;8.548;2023-04-07T04:37:19;11.20;69.00
19567;DHT22;9930;49.240;8.548;2023-04-07T04:39:47;11.10;69.00
19567;DHT22;9930;49.240;8.548;2023-04-07T04:42:13;11.10;69.00
19567;DHT22;9930;49.240;8.548;2023-04-07T04:44:42;11.10;69.10
19567;DHT22;9930;49.240;8.548;2023-04-07T04:47:11;11.10;69.20
19567;DHT22;9930;49.240;8.548;2023-04-07T04:49:37;11.10;69.30
19567;DHT22;9930;49.240;8.548;2023-04-07T04:52:02;11.10;69.40
19567;DHT22;9930;49.240;8.548;2023-04-07T04:54:31;11.10;69.40
19567;DHT22;9930;49.240;8.548;2023-04-07T04:56:57;11.10;69.40
19567;DHT22;9930;49.240;8.548;2023-04-07T04:59:26;11.10;69.40
19567;DHT22;9930;49.240;8.548;2023-04-07T05:01:51;11.00;69.40
19567;DHT22;9930;49.240;8.548;2023-04-07T05:04:17;11.10;69.60
19567;DHT22;9930;49.240;8.548;2023-04-07T05:06:45;11.00;69.60
19567;DHT22;9930;49.240;8.548;2023-04-07T05:09:11;11.00;69.20
19567;DHT22;9930;49.240;8.548;2023-04-07T05:11:40;11.00;69.40
19567;DHT22;9930;49.240;8.548;2023-04-07T05:14:08;11.00;69.00
19567;DHT22;9930;49.240;8.548;2023-04-07T05:16:34;10.90;69.20
19567;DHT22;9930;49.240;8.548;2023-04-07T05:19:01;11.00;69.50
19567;DHT22;9930;49.240;8.548;2023-04-07T05:21:26;11.00;69.60
19567;DHT22;9930;49.240;8.548;2023-04-07T05:23:52;11.00;69.60
19567;DHT22;9930;49.240;8.548;2023-04-07T05:26:18;11.00;69.70
19567;DHT22;9930;49.240;8.548;2023-04-07T05:28:44;10.90;69.80
19567;DHT22;9930;49.240;8.548;2023-04-07T05:31:10;10.90;69.90
19567;DHT22;9930;49.240;8.548;2023-04-07T05:33:35;10.90;70.00
19567;DHT22;9930;49.240;8.548;2023-04-07T05:36:05;10.90;70.00
19567;DHT22;9930;49.240;8.548;2023-04-07T05:38:31;10.90;70.10
19567;DHT22;9930;49.240;8.548;2023-04-07T05:40:59;10.90;70.10
19567;DHT22;9930;49.240;8.548;2023-04-07T05:43:25;10.90;70.10
19567;DHT22;9930;49.240;8.548;2023-04-07T05:45:53;10.90;70.30
19567;DHT22;9930;49.240;8.548;2023-04-07T05:48:21;10.90;70.50
19567;DHT22;9930;49.240;8.548;2023-04-07T05:50:49;10.90;70.70
19567;DHT22;9930;49.240;8.548;2023-04-07T05:53:19;10.90;70.90
19567;DHT22;9930;49.240;8.548;2023-04-07T05:55:50;11.00;71.00
19567;DHT22;9930;49.240;8.548;2023-04-07T05:58:20;11.00;71.10
19567;DHT22;9930;49.240;8.548;2023-04-07T06:00:49;11.00;71.10
19567;DHT22;9930;49.240;8.548;2023-04-07T06:03:15;11.10;71.20
19567;DHT22;9930;49.240;8.548;2023-04-07T06:05:40;11.20;71.40
19567;DHT22;9930;49.240;8.548;2023-04-07T06:08:10;11.20;71.30
19567;DHT22;9930;49.240;8.548;2023-04-07T06:10:36;11.30;71.40
19567;DHT22;9930;49.240;8.548;2023-04-07T06:13:01;11.40;71.60
19567;DHT22;9930;49.240;8.548;2023-04-07T06:15:27;11.40;71.30
19567;DHT22;9930;49.240;8.548;2023-04-07T06:17:53;11.50;71.30
19567;DHT22;9930;49.240;8.548;2023-04-07T06:20:18;11.50;71.30
19567;DHT22;9930;49.240;8.548;2023-04-07T06:22:46;11.60;71.30
19567;DHT22;9930;49.240;8.548;2023-04-07T06:25:12;11.70;71.30
19567;DHT22;9930;49.240;8.548;2023-04-07T06:27:38;11.70;71.30
19567;DHT22;9930;49.240;8.548;2023-04-07T06:30:10;11.80;71.10
19567;DHT22;9930;49.240;8.548;2023-04-07T06:32:36;11.80;71.20
19567;DHT22;9930;49.240;8.548;2023-04-07T06:35:02;11.90;71.10
19567;DHT22;9930;49.240;8.548;2023-04-07T06:37:27;11.90;71.10
19567;DHT22;9930;49.240;8.548;2023-04-07T06:39:56;12.00;71.10
19567;DHT22;9930;49.240;8.548;2023-04-07T06:42:21;12.00;71.10
19567;DHT22;9930;49.240;8.548;2023-04-07T06:44:47;12.00;71.10
19567;DHT22;9930;49.240;8.548;2023-04-07T06:47:15;12.10;71.40
19567;DHT22;9930;49.240;8.548;2023-04-07T06:49:48;12.20;71.70
19567;DHT22;9930;49.240;8.548;2023-04-07T06:52:18;12.20;71.60
19567;DHT22;9930;49.240;8.548;2023-04-07T06:54:44;12.40;71.50
19567;DHT22;9930;49.240;8.548;2023-04-07T06:57:12;12.50;71.20
19567;DHT22;9930;49.240;8.548;2023-04-07T06:59:42;12.50;71.00
19567;DHT22;9930;49.240;8.548;2023-04-07T07:02:07;12.60;70.80
19567;DHT22;9930;49.240;8.548;2023-04-07T07:04:34;12.70;70.60
19567;DHT22;9930;49.240;8.548;2023-04-07T07:07:03;12.70;70.40
19567;DHT22;9930;49.240;8.548;2023-04-07T07:09:28;12.80;70.30
19567;DHT22;9930;49.240;8.548;2023-04-07T07:11:57;12.80;70.60
19567;DHT22;9930;49.240;8.548;2023-04-07T07:14:25;12.90;71.10
19567;DHT22;9930;49.240;8.548;2023-04-07T07:16:50;13.00;71.50
19567;DHT22;9930;49.240;8.548;2023-04-07T07:19:16;13.10;71.70
19567;DHT22;9930;49.240;8.548;2023-04-07T07:21:41;13.30;71.30
19567;DHT22;9930;49.240;8.548;2023-04-07T07:24:09;13.40;72.00
19567;DHT22;9930;49.240;8.548;2023-04-07T07:26:36;13.50;70.80
19567;DHT22;9930;49.240;8.548;2023-04-07T07:29:13;13.70;70.60
19567;DHT22;9930;49.240;8.548;2023-04-07T07:31:40;13.80;70.10
19567;DHT22;9930;49.240;8.548;2023-04-07T07:34:09;13.90;69.80
19567;DHT22;9930;49.240;8.548;2023-04-07T07:36:35;14.00;69.50
19567;DHT22;9930;49.240;8.548;2023-04-07T07:39:03;14.10;69.30
19567;DHT22;9930;49.240;8.548;2023-04-07T07:41:31;14.10;69.30
19567;DHT22;9930;49.240;8.548;2023-04-07T07:43:59;14.20;69.10
19567;DHT22;9930;49.240;8.548;2023-04-07T07:46:30;14.20;69.20
19567;DHT22;9930;49.240;8.548;2023-04-07T07:49:00;14.30;69.20
19567;DHT22;9930;49.240;8.548;2023-04-07T07:51:32;14.40;69.10
19567;DHT22;9930;49.240;8.548;2023-04-07T07:54:03;14.40;68.90
19567;DHT22;9930;49.240;8.548;2023-04-07T07:56:31;14.40;68.80
19567;DHT22;9930;49.240;8.548;2023-04-07T07:58:56;14.50;68.80
19567;DHT22;9930;49.240;8.548;2023-04-07T08:01:22;14.60;68.80
19567;DHT22;9930;49.240;8.548;2023-04-07T08:03:48;14.60;68.70
19567;DHT22;9930;49.240;8.548;2023-04-07T08:06:13;14.70;68.60
19567;DHT22;9930;49.240;8.548;2023-04-07T08:08:43;14.70;68.50
19567;DHT22;9930;49.240;8.548;2023-04-07T08:11:10;14.80;69.20
19567;DHT22;9930;49.240;8.548;2023-04-07T08:13:36;14.80;68.30
19567;DHT22;9930;49.240;8.548;2023-04-07T08:16:04;14.90;68.30
19567;DHT22;9930;49.240;8.548;2023-04-07T08:18:31;15.00;68.20
19567;DHT22;9930;49.240;8.548;2023-04-07T08:20:59;15.10;68.10
19567;DHT22;9930;49.240;8.548;2023-04-07T08:23:25;15.10;67.70
19567;DHT22;9930;49.240;8.548;2023-04-07T08:25:51;15.20;67.60
19567;DHT22;9930;49.240;8.548;2023-04-07T08:28:19;15.30;67.30
19567;DHT22;9930;49.240;8.548;2023-04-07T08:30:47;15.30;67.20
19567;DHT22;9930;49.240;8.548;2023-04-07T08:33:13;15.40;67.40
19567;DHT22;9930;49.240;8.548;2023-04-07T08:35:43;15.40;67.30
19567;DHT22;9930;49.240;8.548;2023-04-07T08:38:10;15.50;67.40
19567;DHT22;9930;49.240;8.548;2023-04-07T08:40:36;15.60;67.30
19567;DHT22;9930;49.240;8.548;2023-04-07T08:43:07;15.70;67.30
19567;DHT22;9930;49.240;8.548;2023-04-07T08:45:38;15.70;66.90
19567;DHT22;9930;49.240;8.548;2023-04-07T08:48:16;15.80;66.70
19567;DHT22;9930;49.240;8.548;2023-04-07T08:50:45;15.90;66.60
19567;DHT22;9930;49.240;8.548;2023-04-07T08:53:18;16.00;66.60
19567;DHT22;9930;49.240;8.548;2023-04-07T08:55:48;16.10;66.20
19567;DHT22;9930;49.240;8.548;2023-04-07T08:58:14;16.20;66.10
19567;DHT22;9930;49.240;8.548;2023-04-07T09:00:43;16.20;65.90
19567;DHT22;9930;49.240;8.548;2023-04-07T09:03:11;16.30;65.70
19567;DHT22;9930;49.240;8.548;2023-04-07T09:05:38;16.40;65.70
19567;DHT22;9930;49.240;8.548;2023-04-07T09:08:04;16.50;65.30
19567;DHT22;9930;49.240;8.548;2023-04-07T09:10:32;16.60;65.00
19567;DHT22;9930;49.240;8.548;2023-04-07T09:12:58;16.70;64.90
19567;DHT22;9930;49.240;8.548;2023-04-07T09:15:30;16.80;64.30
19567;DHT22;9930;49.240;8.548;2023-04-07T09:17:57;16.80;63.60
19567;DHT22;9930;49.240;8.548;2023-04-07T09:23:29;16.90;63.20
19567;DHT22;9930;49.240;8.548;2023-04-07T09:25:55;16.90;63.00
19567;DHT22;9930;49.240;8.548;2023-04-07T09:28:24;16.90;62.90
19567;DHT22;9930;49.240;8.548;2023-04-07T09:30:54;16.90;63.00
19567;DHT22;9930;49.240;8.548;2023-04-07T09:33:27;16.80;62.60
19567;DHT22;9930;49.240;8.548;2023-04-07T09:35:55;16.80;62.70
19567;DHT22;9930;49.240;8.548;2023-04-07T09:38:21;16.90;62.70
19567;DHT22;9930;49.240;8.548;2023-04-07T09:40:47;16.90;62.40
19567;DHT22;9930;49.240;8.548;2023-04-07T09:43:17;16.90;62.30
19567;DHT22;9930;49.240;8.548;2023-04-07T09:45:45;16.90;62.30
19567;DHT22;9930;49.240;8.548;2023-04-07T09:48:19;16.90;62.40
19567;DHT22;9930;49.240;8.548;2023-04-07T09:50:47;17.00;62.00
19567;DHT22;9930;49.240;8.548;2023-04-07T09:53:16;17.00;62.10
19567;DHT22;9930;49.240;8.548;2023-04-07T09:55:49;17.10;62.00
19567;DHT22;9930;49.240;8.548;2023-04-07T09:58:16;17.20;62.40
19567;DHT22;9930;49.240;8.548;2023-04-07T10:00:45;17.40;62.40
19567;DHT22;9930;49.240;8.548;2023-04-07T10:03:16;17.50;62.00
19567;DHT22;9930;49.240;8.548;2023-04-07T10:05:43;17.60;61.80
19567;DHT22;9930;49.240;8.548;2023-04-07T10:08:10;17.70;61.80
19567;DHT22;9930;49.240;8.548;2023-04-07T10:10:41;17.90;61.90
19567;DHT22;9930;49.240;8.548;2023-04-07T10:13:13;18.00;61.40
19567;DHT22;9930;49.240;8.548;2023-04-07T10:15:41;18.20;61.10
19567;DHT22;9930;49.240;8.548;2023-04-07T10:18:07;18.40;60.90
19567;DHT22;9930;49.240;8.548;2023-04-07T10:20:41;18.50;61.10
19567;DHT22;9930;49.240;8.548;2023-04-07T10:23:16;18.70;61.10
19567;DHT22;9930;49.240;8.548;2023-04-07T10:25:47;18.90;59.80
19567;DHT22;9930;49.240;8.548;2023-04-07T10:28:20;19.00;59.50
19567;DHT22;9930;49.240;8.548;2023-04-07T10:30:52;19.20;59.20
19567;DHT22;9930;49.240;8.548;2023-04-07T10:33:45;19.20;58.90
19567;DHT22;9930;49.240;8.548;2023-04-07T10:36:13;19.30;58.00
19567;DHT22;9930;49.240;8.548;2023-04-07T10:38:41;19.40;58.60
19567;DHT22;9930;49.240;8.548;2023-04-07T10:41:37;19.50;58.80
19567;DHT22;9930;49.240;8.548;2023-04-07T10:47:07;19.70;57.70
19567;DHT22;9930;49.240;8.548;2023-04-07T10:49:34;19.70;57.70
19567;DHT22;9930;49.240;8.548;2023-04-07T10:54:39;19.60;56.00
19567;DHT22;9930;49.240;8.548;2023-04-07T10:57:13;19.50;55.70
19567;DHT22;9930;49.240;8.548;2023-04-07T11:00:13;19.40;56.10
19567;DHT22;9930;49.240;8.548;2023-04-07T11:02:43;19.20;56.70
19567;DHT22;9930;49.240;8.548;2023-04-07T11:05:20;19.00;57.10
19567;DHT22;9930;49.240;8.548;2023-04-07T11:07:51;18.80;57.70
19567;DHT22;9930;49.240;8.548;2023-04-07T11:10:21;18.60;57.90
19567;DHT22;9930;49.240;8.548;2023-04-07T11:12:58;18.50;58.00
19567;DHT22;9930;49.240;8.548;2023-04-07T11:15:25;18.30;58.30
19567;DHT22;9930;49.240;8.548;2023-04-07T11:23:19;17.80;58.70
19567;DHT22;9930;49.240;8.548;2023-04-07T11:25:49;17.80;58.80
19567;DHT22;9930;49.240;8.548;2023-04-07T11:28:17;17.70;59.00
19567;DHT22;9930;49.240;8.548;2023-04-07T11:30:50;17.60;59.00
19567;DHT22;9930;49.240;8.548;2023-04-07T11:33:19;17.60;58.70
19567;DHT22;9930;49.240;8.548;2023-04-07T11:35:55;17.60;58.60
19567;DHT22;9930;49.240;8.548;2023-04-07T11:38:27;17.50;58.70
19567;DHT22;9930;49.240;8.548;2023-04-07T11:40:55;17.50;59.70
19567;DHT22;9930;49.240;8.548;2023-04-07T11:43:25;17.50;59.30
19567;DHT22;9930;49.240;8.548;2023-04-07T11:46:08;17.50;59.30
19567;DHT22;9930;49.240;8.548;2023-04-07T11:48:37;17.40;59.30
19567;DHT22;9930;49.240;8.548;2023-04-07T11:51:17;17.30;59.10
19567;DHT22;9930;49.240;8.548;2023-04-07T11:53:45;17.10;59.00
19567;DHT22;9930;49.240;8.548;2023-04-07T11:56:18;17.00;59.20
19567;DHT22;9930;49.240;8.548;2023-04-07T11:58:52;16.80;59.40
19567;DHT22;9930;49.240;8.548;2023-04-07T12:01:20;16.60;59.70
19567;DHT22;9930;49.240;8.548;2023-04-07T12:04:00;16.40;59.80
19567;DHT22;9930;49.240;8.548;2023-04-07T12:06:33;16.20;61.00
19567;DHT22;9930;49.240;8.548;2023-04-07T12:09:07;16.00;61.00
19567;DHT22;9930;49.240;8.548;2023-04-07T12:11:54;15.80;61.40
19567;DHT22;9930;49.240;8.548;2023-04-07T12:14:21;15.60;61.40
19567;DHT22;9930;49.240;8.548;2023-04-07T12:16:48;15.50;62.00
19567;DHT22;9930;49.240;8.548;2023-04-07T12:19:14;15.40;62.70
19567;DHT22;9930;49.240;8.548;2023-04-07T12:21:44;15.30;63.30
19567;DHT22;9930;49.240;8.548;2023-04-07T12:24:10;15.20;64.10
19567;DHT22;9930;49.240;8.548;2023-04-07T12:26:36;15.20;64.20
19567;DHT22;9930;49.240;8.548;2023-04-07T12:29:04;15.20;64.60
19567;DHT22;9930;49.240;8.548;2023-04-07T12:31:32;15.20;65.00
19567;DHT22;9930;49.240;8.548;2023-04-07T12:34:01;15.20;65.00
19567;DHT22;9930;49.240;8.548;2023-04-07T12:36:27;15.30;65.30
19567;DHT22;9930;49.240;8.548;2023-04-07T12:38:54;15.30;65.30
19567;DHT22;9930;49.240;8.548;2023-04-07T12:41:25;15.30;65.50
19567;DHT22;9930;49.240;8.548;2023-04-07T12:43:52;15.30;65.40
19567;DHT22;9930;49.240;8.548;2023-04-07T12:46:18;15.40;65.30
19567;DHT22;9930;49.240;8.548;2023-04-07T12:48:49;15.40;65.40
19567;DHT22;9930;49.240;8.548;2023-04-07T12:51:15;15.50;65.90
19567;DHT22;9930;49.240;8.548;2023-04-07T12:53:44;15.50;65.60
19567;DHT22;9930;49.240;8.548;2023-04-07T12:56:10;15.60;65.50
19567;DHT22;9930;49.240;8.548;2023-04-07T12:58:37;15.60;65.10
19567;DHT22;9930;49.240;8.548;2023-04-07T13:01:07;15.70;65.00
19567;DHT22;9930;49.240;8.548;2023-04-07T13:03:33;15.70;65.10
19567;DHT22;9930;49.240;8.548;2023-04-07T13:06:01;15.80;66.50
19567;DHT22;9930;49.240;8.548;2023-04-07T13:08:27;15.90;66.50
19567;DHT22;9930;49.240;8.548;2023-04-07T13:10:55;16.00;66.70
19567;DHT22;9930;49.240;8.548;2023-04-07T13:13:22;16.10;66.30
19567;DHT22;9930;49.240;8.548;2023-04-07T13:15:50;16.20;66.20
19567;DHT22;9930;49.240;8.548;2023-04-07T13:18:16;16.30;66.00
19567;DHT22;9930;49.240;8.548;2023-04-07T13:20:45;16.30;66.00
19567;DHT22;9930;49.240;8.548;2023-04-07T13:23:19;16.50;66.20
19567;DHT22;9930;49.240;8.548;2023-04-07T13:25:47;16.50;66.60
19567;DHT22;9930;49.240;8.548;2023-04-07T13:28:15;16.70;66.10
19567;DHT22;9930;49.240;8.548;2023-04-07T13:30:45;16.80;66.10
19567;DHT22;9930;49.240;8.548;2023-04-07T13:33:14;16.90;65.80
19567;DHT22;9930;49.240;8.548;2023-04-07T13:35:43;17.00;65.40
19567;DHT22;9930;49.240;8.548;2023-04-07T13:38:12;17.00;64.90
19567;DHT22;9930;49.240;8.548;2023-04-07T13:40:40;17.10;64.50
19567;DHT22;9930;49.240;8.548;2023-04-07T13:43:07;17.20;64.50
19567;DHT22;9930;49.240;8.548;2023-04-07T13:45:33;17.30;64.30
19567;DHT22;9930;49.240;8.548;2023-04-07T13:47:59;17.40;63.90
19567;DHT22;9930;49.240;8.548;2023-04-07T13:50:25;17.40;63.50
19567;DHT22;9930;49.240;8.548;2023-04-07T13:52:53;17.40;63.30
19567;DHT22;9930;49.240;8.548;2023-04-07T13:55:21;17.40;63.10
19567;DHT22;9930;49.240;8.548;2023-04-07T13:57:47;17.40;62.90
19567;DHT22;9930;49.240;8.548;2023-04-07T14:00:16;17.30;62.50
19567;DHT22;9930;49.240;8.548;2023-04-07T14:02:44;17.30;62.60
19567;DHT22;9930;49.240;8.548;2023-04-07T14:05:12;17.20;62.60
19567;DHT22;9930;49.240;8.548;2023-04-07T14:07:40;17.10;62.60
19567;DHT22;9930;49.240;8.548;2023-04-07T14:10:11;17.10;62.60
19567;DHT22;9930;49.240;8.548;2023-04-07T14:12:45;17.00;62.90
19567;DHT22;9930;49.240;8.548;2023-04-07T14:15:12;17.00;62.90
19567;DHT22;9930;49.240;8.548;2023-04-07T14:17:40;16.90;62.70
19567;DHT22;9930;49.240;8.548;2023-04-07T14:20:06;16.80;62.80
19567;DHT22;9930;49.240;8.548;2023-04-07T14:22:35;16.80;62.90
19567;DHT22;9930;49.240;8.548;2023-04-07T14:25:00;16.80;62.80
19567;DHT22;9930;49.240;8.548;2023-04-07T14:27:26;16.80;62.70
19567;DHT22;9930;49.240;8.548;2023-04-07T14:29:57;16.90;62.80
19567;DHT22;9930;49.240;8.548;2023-04-07T14:32:23;16.80;62.60
19567;DHT22;9930;49.240;8.548;2023-04-07T14:34:56;16.90;63.00
19567;DHT22;9930;49.240;8.548;2023-04-07T14:37:23;16.90;63.00
19567;DHT22;9930;49.240;8.548;2023-04-07T14:39:51;17.00;62.90
19567;DHT22;9930;49.240;8.548;2023-04-07T14:42:22;17.00;62.50
19567;DHT22;9930;49.240;8.548;2023-04-07T14:44:48;17.00;63.20
19567;DHT22;9930;49.240;8.548;2023-04-07T14:47:18;17.00;62.20
19567;DHT22;9930;49.240;8.548;2023-04-07T14:49:44;17.00;62.00
19567;DHT22;9930;49.240;8.548;2023-04-07T14:52:13;17.00;62.00
19567;DHT22;9930;49.240;8.548;2023-04-07T14:54:43;17.00;61.70
19567;DHT22;9930;49.240;8.548;2023-04-07T14:57:09;17.00;61.50
19567;DHT22;9930;49.240;8.548;2023-04-07T14:59:36;17.00;61.50
19567;DHT22;9930;49.240;8.548;2023-04-07T15:02:03;16.90;61.50
19567;DHT22;9930;49.240;8.548;2023-04-07T15:04:31;16.90;61.60
19567;DHT22;9930;49.240;8.548;2023-04-07T15:06:57;16.90;61.70
19567;DHT22;9930;49.240;8.548;2023-04-07T15:09:23;16.90;62.50
19567;DHT22;9930;49.240;8.548;2023-04-07T15:11:52;16.90;61.60
19567;DHT22;9930;49.240;8.548;2023-04-07T15:14:22;16.80;61.40
19567;DHT22;9930;49.240;8.548;2023-04-07T15:16:52;16.70;61.40
19567;DHT22;9930;49.240;8.548;2023-04-07T15:19:21;16.70;61.50
19567;DHT22;9930;49.240;8.548;2023-04-07T15:21:49;16.60;61.70
19567;DHT22;9930;49.240;8.548;2023-04-07T15:24:15;16.60;61.90
19567;DHT22;9930;49.240;8.548;2023-04-07T15:26:40;16.70;62.20
19567;DHT22;9930;49.240;8.548;2023-04-07T15:29:09;16.70;62.00
19567;DHT22;9930;49.240;8.548;2023-04-07T15:31:35;16.70;61.50
19567;DHT22;9930;49.240;8.548;2023-04-07T15:34:03;16.70;61.40
19567;DHT22;9930;49.240;8.548;2023-04-07T15:36:29;16.70;61.40
19567;DHT22;9930;49.240;8.548;2023-04-07T15:38:58;16.70;61.30
19567;DHT22;9930;49.240;8.548;2023-04-07T15:41:28;16.70;61.30
19567;DHT22;9930;49.240;8.548;2023-04-07T15:43:54;16.70;61.20
19567;DHT22;9930;49.240;8.548;2023-04-07T15:46:21;16.70;62.00
19567;DHT22;9930;49.240;8.548;2023-04-07T15:48:49;16.60;61.30
19567;DHT22;9930;49.240;8.548;2023-04-07T15:51:16;16.60;61.40
19567;DHT22;9930;49.240;8.548;2023-04-07T15:53:47;16.50;61.40
19567;DHT22;9930;49.240;8.548;2023-04-07T15:56:13;16.50;61.30
19567;DHT22;9930;49.240;8.548;2023-04-07T15:58:39;16.40;61.30
19567;DHT22;9930;49.240;8.548;2023-04-07T16:01:05;16.30;61.30
19567;DHT22;9930;49.240;8.548;2023-04-07T16:03:31;16.20;61.60
19567;DHT22;9930;49.240;8.548;2023-04-07T16:05:57;16.10;61.80
19567;DHT22;9930;49.240;8.548;2023-04-07T16:08:27;16.10;61.80
19567;DHT22;9930;49.240;8.548;2023-04-07T16:10:55;16.10;61.90
19567;DHT22;9930;49.240;8.548;2023-04-07T16:13:23;16.00;61.80
19567;DHT22;9930;49.240;8.548;2023-04-07T16:15:49;16.00;61.40
19567;DHT22;9930;49.240;8.548;2023-04-07T16:18:24;15.90;61.30